Time;durP1;ratioP1;P1;durP2;ratioP2;P2;SDS_P1;SDS_P2;PMS_P1;PMS_P2;Temp;Humidity;BMP_temperature;BMP_pressure;BME280_temperature;BME280_humidity;BME280_pressure;Samples;Min_cycle;Max_cycle;Signal;HPM_P1;HPM_P2
2022/09/07 00:00:52;;;;;;;0.50;0.50;;;17.80;70.50;;;18.18;55.58;95049.09;5025185;28;20197;-80
2022/09/07 00:03:20;;;;;;;0.50;0.50;;;17.90;70.70;;;18.15;56.32;95047.72;5017199;28;20247;-80
2022/09/07 00:05:50;;;;;;;0.50;0.50;;;17.80;70.70;;;18.05;56.09;95037.69;5034862;28;20271;-80
2022/09/07 00:08:23;;;;;;;0.50;0.50;;;17.80;71.20;;;18.08;56.24;95037.22;5003641;28;20287;-80
2022/09/07 00:10:57;;;;;;;0.50;0.50;;;17.70;71.30;;;18.07;56.52;95037.47;5008628;28;20597;-79
2022/09/07 00:13:27;;;;;;;0.50;0.50;;;17.70;71.70;;;18.05;56.82;95028.91;5006288;28;20200;-79
2022/09/07 00:15:55;;;;;;;0.50;0.50;;;17.70;71.80;;;18.04;56.84;95032.59;5016711;28;20200;-79
2022/09/07 00:18:23;;;;;;;0.55;0.55;;;17.70;71.30;;;18.02;56.70;95032.06;5013150;28;20304;-81
2022/09/07 00:20:59;;;;;;;0.50;0.50;;;17.70;71.40;;;18.01;56.89;95027.78;5003290;28;20865;-79
2022/09/07 00:23:28;;;;;;;0.50;0.50;;;17.60;72.30;;;18.00;57.16;95028.81;5027547;28;20212;-80
2022/09/07 00:26:18;;;;;;;0.50;0.50;;;17.60;71.50;;;17.97;57.07;95029.28;5024003;28;20205;-79
2022/09/07 00:28:46;;;;;;;0.52;0.52;;;17.60;72.40;;;17.95;56.58;95031.38;5009988;28;20191;-81
2022/09/07 00:31:20;;;;;;;0.50;0.50;;;17.60;71.40;;;17.88;57.28;95021.69;5010081;28;20213;-80
2022/09/07 00:33:50;;;;;;;0.50;0.50;;;17.60;72.30;;;17.90;56.64;95027.53;5011884;28;20290;-80
2022/09/07 00:36:19;;;;;;;0.50;0.50;;;17.60;71.70;;;17.88;57.00;95024.34;5014372;28;20215;-80
2022/09/07 00:38:46;;;;;;;0.50;0.50;;;17.50;71.60;;;17.86;57.07;95025.59;5031343;28;20741;-80
2022/09/07 00:41:15;;;;;;;0.60;0.60;;;17.50;71.50;;;17.84;57.13;95022.38;5001615;28;20220;-80
2022/09/07 00:43:53;;;;;;;0.50;0.50;;;17.50;72.60;;;17.78;56.81;95026.75;5027224;28;20216;-80
2022/09/07 00:46:27;;;;;;;0.50;0.50;;;17.40;72.40;;;17.78;57.41;95021.44;5004182;28;20274;-80
2022/09/07 00:49:15;;;;;;;0.50;0.50;;;17.50;72.50;;;17.74;57.06;95021.13;5009403;28;20287;-80
2022/09/07 00:51:51;;;;;;;0.60;0.60;;;17.40;72.50;;;17.72;57.44;95011.78;5010166;28;20288;-79
2022/09/07 00:54:24;;;;;;;0.50;0.50;;;17.40;72.70;;;17.69;57.67;95006.97;5000582;28;20196;-80
2022/09/07 00:56:52;;;;;;;0.50;0.50;;;17.40;72.40;;;17.71;57.01;95013.63;5012005;28;20252;-79
2022/09/07 00:59:27;;;;;;;0.60;0.60;;;17.40;72.20;;;17.69;57.68;95018.38;4999388;28;20319;-80
2022/09/07 01:01:54;;;;;;;0.60;0.60;;;17.40;72.70;;;17.68;57.69;95013.31;5003380;28;20634;-80
2022/09/07 01:04:22;;;;;;;0.60;0.60;;;17.30;72.30;;;17.67;57.65;95009.03;5020067;28;20196;-80
2022/09/07 01:06:50;;;;;;;0.70;0.70;;;17.30;72.40;;;17.66;57.75;95002.91;5020344;28;20220;-79
2022/09/07 01:09:21;;;;;;;0.50;0.50;;;17.30;72.50;;;17.67;58.17;95014.34;5018798;28;20669;-80
2022/09/07 01:11:50;;;;;;;0.60;0.60;;;17.30;72.90;;;17.64;57.61;95012.97;5019903;28;20213;-79
2022/09/07 01:14:28;;;;;;;0.55;0.55;;;17.30;72.70;;;17.62;58.12;95015.03;5015565;28;20215;-79
2022/09/07 01:17:38;;;;;;;0.50;0.50;;;17.30;73.00;;;17.61;57.88;95024.03;5019361;28;20664;-80
2022/09/07 01:20:49;;;;;;;0.50;0.50;;;17.30;74.30;;;17.55;57.68;95017.81;5019132;28;20209;-79
2022/09/07 01:23:43;;;;;;;0.50;0.50;;;17.30;73.40;;;17.51;57.64;95019.31;5002772;28;20248;-80
2022/09/07 01:26:31;;;;;;;0.60;0.60;;;17.20;73.20;;;17.50;57.86;95009.75;5026829;28;20715;-80
2022/09/07 01:29:19;;;;;;;0.50;0.50;;;17.20;73.20;;;17.47;58.10;95004.09;5018638;28;20216;-79
2022/09/07 01:32:12;;;;;;;0.50;0.50;;;17.20;73.30;;;17.44;57.82;95003.53;4993658;28;20263;-80
2022/09/07 01:34:43;;;;;;;0.50;0.50;;;17.10;73.50;;;17.41;58.15;95006.63;4992186;28;20201;-79
2022/09/07 01:37:36;;;;;;;0.60;0.60;;;17.10;72.60;;;17.38;57.97;95007.13;5008897;28;20223;-79
2022/09/07 01:40:18;;;;;;;0.50;0.50;;;17.10;73.60;;;17.36;57.87;95001.22;5026045;28;20214;-79
2022/09/07 01:43:01;;;;;;;0.50;0.50;;;17.10;73.50;;;17.34;58.30;94998.00;4998780;28;20223;-79
2022/09/07 01:45:34;;;;;;;0.50;0.50;;;17.10;73.80;;;17.33;58.05;94998.25;5004654;28;20196;-80
2022/09/07 01:48:08;;;;;;;0.50;0.50;;;17.00;73.20;;;17.32;58.49;95000.09;5024019;28;20259;-79
2022/09/07 01:50:56;;;;;;;0.50;0.50;;;17.00;73.40;;;17.29;58.27;94998.69;5026633;28;20684;-80
2022/09/07 01:53:52;;;;;;;0.50;0.50;;;17.00;73.90;;;17.26;58.29;94993.88;5013555;28;20238;-79
2022/09/07 01:56:46;;;;;;;0.52;0.52;;;16.90;73.80;;;17.22;57.99;94995.38;5029491;28;20227;-79
2022/09/07 01:59:28;;;;;;;0.50;0.50;;;16.90;73.60;;;17.22;58.18;94999.84;4994716;28;20204;-80
2022/09/07 02:02:15;;;;;;;0.50;0.50;;;16.90;73.50;;;17.18;58.16;94996.06;4999270;28;20228;-79
2022/09/07 02:05:08;;;;;;;0.55;0.55;;;16.90;73.60;;;17.16;58.42;94998.94;4994760;28;20200;-79
2022/09/07 02:07:45;;;;;;;0.50;0.50;;;16.90;74.00;;;17.16;58.67;95003.44;4998016;28;20224;-80
2022/09/07 02:10:20;;;;;;;0.60;0.60;;;16.80;73.80;;;17.12;58.21;94993.31;5023663;28;20725;-80
2022/09/07 02:13:00;;;;;;;0.70;0.70;;;16.80;73.40;;;17.09;58.55;94995.59;5047247;28;20582;-80
2022/09/07 02:15:55;;;;;;;0.60;0.60;;;16.80;73.70;;;17.06;58.63;94999.50;5024194;28;20204;-79
2022/09/07 02:18:25;;;;;;;0.50;0.50;;;16.80;73.90;;;17.04;58.74;95001.59;4994597;28;20287;-80
2022/09/07 02:20:56;;;;;;;0.50;0.50;;;16.70;73.20;;;17.02;58.56;94997.56;5009529;28;20247;-79
2022/09/07 02:23:31;;;;;;;0.60;0.60;;;16.70;73.20;;;17.01;58.73;94993.28;5009018;28;20683;-79
2022/09/07 02:26:06;;;;;;;0.60;0.60;;;16.70;73.60;;;16.99;58.67;94998.84;5006570;28;20220;-79
2022/09/07 02:28:37;;;;;;;0.60;0.60;;;16.70;73.40;;;16.98;58.92;94996.38;5000449;28;20226;-80
2022/09/07 02:31:05;;;;;;;0.75;0.75;;;16.60;73.30;;;16.93;58.66;94992.59;5025413;28;20196;-79
2022/09/07 02:33:32;;;;;;;0.65;0.65;;;16.60;73.20;;;16.93;59.03;94999.72;5031153;28;20200;-80
2022/09/07 02:36:03;;;;;;;0.70;0.70;;;16.60;73.30;;;16.92;58.55;94998.13;4999976;28;20240;-79
2022/09/07 02:38:32;;;;;;;0.50;0.50;;;16.50;73.40;;;16.90;58.46;94994.88;5014109;28;20197;-80
2022/09/07 02:41:02;;;;;;;0.70;0.70;;;16.60;73.50;;;16.88;58.59;94988.97;5012455;28;20197;-79
2022/09/07 02:43:30;;;;;;;0.70;0.70;;;16.70;73.70;;;16.88;59.11;94994.28;5011009;28;20229;-79
2022/09/07 02:46:20;;;;;;;0.60;0.60;;;16.50;73.60;;;16.85;59.13;95000.84;5018880;28;20197;-78
2022/09/07 02:49:22;;;;;;;0.50;0.50;;;16.50;74.40;;;16.81;58.90;94997.84;5017192;28;20199;-78
2022/09/07 02:52:29;;;;;;;0.52;0.52;;;16.50;74.50;;;16.77;58.90;94996.72;5004243;28;20220;-79
2022/09/07 02:55:33;;;;;;;0.50;0.50;;;16.50;74.40;;;16.72;59.14;94999.25;5030414;28;20243;-78
2022/09/07 02:58:31;;;;;;;0.60;0.60;;;16.50;74.40;;;16.71;58.69;94997.63;5013978;28;20252;-77
2022/09/07 03:01:17;;;;;;;0.65;0.65;;;16.40;74.00;;;16.68;59.53;94992.75;5024291;28;20278;-78
2022/09/07 03:04:13;;;;;;;0.60;0.60;;;16.50;74.40;;;16.65;59.39;94986.09;5025086;28;20712;-78
2022/09/07 03:07:02;;;;;;;0.60;0.60;;;16.40;74.30;;;16.61;59.62;94978.81;5015665;28;20251;-78
2022/09/07 03:09:40;;;;;;;0.50;0.50;;;16.30;73.60;;;16.65;59.75;94985.28;5014003;28;20209;-80
2022/09/07 03:12:08;;;;;;;0.50;0.50;;;16.30;74.30;;;16.63;59.58;94974.91;5013516;28;20299;-78
2022/09/07 03:14:40;;;;;;;0.50;0.50;;;16.40;74.00;;;16.65;59.73;94988.72;5012427;28;20204;-79
2022/09/07 03:17:08;;;;;;;0.70;0.70;;;16.40;74.50;;;16.65;59.87;94990.59;4997015;28;20233;-78
2022/09/07 03:19:35;;;;;;;0.50;0.50;;;16.40;75.00;;;16.65;59.89;94986.09;5012887;28;20200;-78
2022/09/07 03:22:04;;;;;;;0.50;0.50;;;16.40;74.20;;;16.68;59.88;94984.81;4998774;28;20314;-77
2022/09/07 03:24:31;;;;;;;0.40;0.40;;;16.40;74.30;;;16.68;60.04;94979.53;5013698;28;20216;-78
2022/09/07 03:26:59;;;;;;;0.60;0.60;;;16.40;74.30;;;16.69;59.51;94969.75;5026930;28;20580;-78
2022/09/07 03:29:26;;;;;;;0.60;0.60;;;16.40;74.30;;;16.69;59.87;94972.41;5012180;28;20205;-77
2022/09/07 03:31:54;;;;;;;0.55;0.55;;;16.30;74.20;;;16.67;59.79;94966.50;5003011;28;20228;-78
2022/09/07 03:34:24;;;;;;;0.50;0.50;;;16.30;74.40;;;16.68;60.05;94968.13;4980765;28;20580;-78
2022/09/07 03:36:51;;;;;;;0.50;0.50;;;16.40;74.50;;;16.69;59.97;94967.91;5004715;28;20235;-78
2022/09/07 03:39:21;;;;;;;0.50;0.50;;;16.40;74.60;;;16.71;60.41;94963.19;5016422;28;20193;-78
2022/09/07 03:41:49;;;;;;;0.60;0.60;;;16.40;74.70;;;16.73;59.91;94973.53;5011522;28;20308;-78
2022/09/07 03:44:16;;;;;;;0.50;0.50;;;16.40;74.70;;;16.75;60.46;94976.78;4994630;28;20220;-77
2022/09/07 03:46:43;;;;;;;0.50;0.50;;;16.40;74.70;;;16.76;60.41;94973.06;5011046;28;20241;-78
2022/09/07 03:49:10;;;;;;;0.50;0.50;;;16.40;74.80;;;16.77;60.17;94972.03;5011534;28;20701;-79
2022/09/07 03:51:38;;;;;;;0.50;0.50;;;16.60;75.00;;;16.80;60.57;94975.03;5010041;28;20589;-78
2022/09/07 03:54:05;;;;;;;0.50;0.50;;;16.50;75.00;;;16.83;60.69;94980.94;5011142;28;20287;-78
2022/09/07 03:56:33;;;;;;;0.50;0.50;;;16.60;75.10;;;16.80;60.22;94968.94;4995475;28;20311;-80
2022/09/07 03:59:00;;;;;;;0.70;0.70;;;16.50;75.00;;;16.83;60.26;94973.78;4993955;28;20205;-80
2022/09/07 04:01:28;;;;;;;0.60;0.60;;;16.50;75.00;;;16.87;60.42;94982.91;4997210;28;20232;-80
2022/09/07 04:04:01;;;;;;;0.60;0.60;;;16.50;75.00;;;16.85;60.53;94984.16;4994327;28;20224;-80
2022/09/07 04:06:29;;;;;;;0.60;0.60;;;16.60;75.50;;;16.88;60.44;94986.34;5025418;28;20227;-79
2022/09/07 04:09:00;;;;;;;0.50;0.50;;;16.60;75.00;;;16.88;60.48;94978.38;5015959;28;20193;-80
2022/09/07 04:11:27;;;;;;;0.57;0.57;;;16.60;75.00;;;16.84;60.44;94974.59;5029162;28;20209;-79
2022/09/07 04:13:54;;;;;;;0.50;0.50;;;16.60;75.00;;;16.81;60.41;94966.06;5015751;28;20220;-79
2022/09/07 04:16:25;;;;;;;0.50;0.50;;;16.60;75.00;;;16.85;60.77;94968.25;4995412;28;20714;-80
2022/09/07 04:18:57;;;;;;;0.70;0.70;;;16.60;75.20;;;16.84;60.92;94964.78;5014743;28;20278;-80
2022/09/07 04:21:27;;;;;;;0.60;0.60;;;16.60;75.20;;;16.88;60.91;94987.16;5031851;28;20223;-80
2022/09/07 04:23:54;;;;;;;0.50;0.50;;;16.60;75.30;;;16.89;60.70;94990.59;5030442;28;20219;-79
2022/09/07 04:26:35;;;;;;;0.63;0.63;;;16.60;75.20;;;16.89;60.80;94991.41;5015270;28;20486;-79
2022/09/07 04:29:03;;;;;;;0.50;0.50;;;16.60;75.50;;;16.88;60.68;94989.81;5015583;28;20196;-79
2022/09/07 04:31:33;;;;;;;0.57;0.57;;;16.60;75.30;;;16.87;60.97;94992.66;5019564;28;20243;-79
2022/09/07 04:34:02;;;;;;;0.50;0.50;;;16.60;75.50;;;16.89;61.14;95004.66;5006644;28;20199;-79
2022/09/07 04:36:29;;;;;;;0.50;0.50;;;16.60;75.40;;;16.88;60.98;95008.34;5031719;28;20220;-79
2022/09/07 04:39:02;;;;;;;0.75;0.75;;;16.70;75.40;;;16.88;60.90;95007.53;5030577;28;20234;-80
2022/09/07 04:41:32;;;;;;;0.80;0.80;;;16.70;75.60;;;16.86;61.20;95007.75;5011889;28;20703;-79
2022/09/07 04:44:02;;;;;;;0.40;0.40;;;16.70;75.60;;;16.88;60.97;95013.66;4979155;28;20216;-80
2022/09/07 04:46:34;;;;;;;0.50;0.50;;;16.70;75.60;;;16.88;61.21;95013.66;5015960;28;20248;-81
2022/09/07 04:49:07;;;;;;;0.60;0.60;;;16.70;75.80;;;16.86;61.20;95015.72;5028454;28;20290;-82
2022/09/07 04:51:35;;;;;;;0.60;0.60;;;16.70;75.60;;;16.86;60.73;95015.72;5011633;28;20679;-79
2022/09/07 04:54:03;;;;;;;0.60;0.60;;;16.70;75.40;;;16.86;60.96;95013.06;5005500;28;20686;-78
2022/09/07 04:56:31;;;;;;;0.50;0.50;;;16.70;75.30;;;16.86;61.21;95012.28;5020476;28;20254;-80
2022/09/07 04:59:00;;;;;;;0.70;0.70;;;16.70;75.40;;;16.87;61.39;95017.34;5022106;28;20211;-79
2022/09/07 05:01:28;;;;;;;0.50;0.50;;;16.70;75.50;;;16.89;61.31;95011.78;5028403;28;20213;-78
2022/09/07 05:03:58;;;;;;;0.55;0.55;;;16.70;75.50;;;16.85;61.42;95006.16;4996717;28;20223;-79
2022/09/07 05:06:26;;;;;;;0.60;0.60;;;16.70;75.50;;;16.89;61.50;95009.16;5013410;28;20586;-79
2022/09/07 05:08:54;;;;;;;0.50;0.50;;;16.70;75.50;;;16.92;61.32;95017.47;5025212;28;20679;-79
2022/09/07 05:11:23;;;;;;;0.50;0.50;;;16.70;75.50;;;16.93;61.50;95016.44;5014009;28;20238;-79
2022/09/07 05:13:57;;;;;;;0.60;0.60;;;16.70;75.80;;;16.95;61.37;95024.16;5030214;28;20203;-80
2022/09/07 05:16:24;;;;;;;0.50;0.50;;;16.70;75.80;;;16.96;61.73;95020.47;5010457;28;20217;-79
2022/09/07 05:19:00;;;;;;;0.60;0.60;;;16.80;75.90;;;16.95;61.72;95017.03;5003608;28;20199;-79
2022/09/07 05:21:31;;;;;;;0.50;0.50;;;16.80;76.10;;;17.00;61.53;95020.81;5010989;28;20677;-79
2022/09/07 05:24:00;;;;;;;0.50;0.50;;;16.80;76.10;;;17.01;61.92;95022.44;5019877;28;20239;-79
2022/09/07 05:26:31;;;;;;;0.60;0.60;;;16.80;75.90;;;17.02;62.23;95024.84;5010782;28;20691;-78
2022/09/07 05:29:03;;;;;;;0.50;0.50;;;16.80;76.20;;;17.05;61.69;95027.06;5009833;28;20632;-79
2022/09/07 05:31:50;;;;;;;0.50;0.50;;;16.90;76.10;;;17.07;61.90;95027.63;5006817;28;20225;-79
2022/09/07 05:34:17;;;;;;;0.60;0.60;;;16.90;76.00;;;17.09;62.20;95022.09;5017278;28;20207;-79
2022/09/07 05:37:00;;;;;;;0.57;0.57;;;16.90;76.10;;;17.07;62.01;95016.22;5005700;28;20217;-81
2022/09/07 05:39:29;;;;;;;0.60;0.60;;;17.00;76.40;;;17.17;62.44;95020.94;5007899;28;20205;-79
2022/09/07 05:41:56;;;;;;;0.50;0.50;;;17.00;76.50;;;17.23;62.45;95012.88;4993192;28;20225;-79
2022/09/07 05:44:25;;;;;;;0.50;0.50;;;17.00;76.60;;;17.30;62.16;95018.06;4993420;28;20224;-79
2022/09/07 05:47:08;;;;;;;0.60;0.60;;;17.10;76.80;;;17.36;62.78;95017.13;4995225;28;20217;-79
2022/09/07 05:49:35;;;;;;;0.50;0.50;;;17.20;77.00;;;17.43;62.48;95014.34;4993728;28;20220;-80
2022/09/07 05:52:02;;;;;;;0.50;0.50;;;17.20;77.00;;;17.48;62.82;95014.50;5009414;28;20220;-79
2022/09/07 05:54:29;;;;;;;0.50;0.50;;;17.30;77.00;;;17.53;62.42;95014.59;4992808;28;20220;-78
2022/09/07 05:56:57;;;;;;;0.50;0.50;;;17.30;76.90;;;17.57;62.37;95010.41;4995959;28;20252;-79
2022/09/07 05:59:24;;;;;;;0.52;0.52;;;17.40;77.00;;;17.62;62.56;95009.72;5011093;28;20204;-78
2022/09/07 06:01:51;;;;;;;0.50;0.50;;;17.50;77.00;;;17.69;62.61;95012.25;4995591;28;20610;-79
2022/09/07 06:04:18;;;;;;;0.60;0.60;;;17.50;77.10;;;17.74;62.56;95015.81;4995940;28;20723;-79
2022/09/07 06:06:45;;;;;;;0.50;0.50;;;17.60;77.20;;;17.82;62.52;95022.63;5034652;28;20239;-78
2022/09/07 06:09:33;;;;;;;0.60;0.60;;;17.60;77.10;;;17.87;62.84;95016.59;5004033;28;20193;-78
2022/09/07 06:12:04;;;;;;;0.50;0.50;;;17.70;77.10;;;17.97;63.08;95021.31;4998318;28;20221;-78
2022/09/07 06:14:32;;;;;;;0.52;0.52;;;17.80;77.00;;;18.05;62.78;95020.94;4998841;28;20690;-80
2022/09/07 06:16:59;;;;;;;0.50;0.50;;;17.90;77.00;;;18.10;62.92;95020.25;5004939;28;20225;-79
2022/09/07 06:19:26;;;;;;;0.40;0.40;;;17.90;76.90;;;18.15;62.47;95025.66;5014645;28;20193;-79
2022/09/07 06:21:53;;;;;;;0.50;0.50;;;18.00;76.80;;;18.21;62.40;95028.19;5013761;28;20705;-79
2022/09/07 06:24:20;;;;;;;0.50;0.50;;;18.00;76.80;;;18.26;62.82;95029.31;4997799;28;20225;-78
2022/09/07 06:26:48;;;;;;;0.50;0.50;;;18.10;76.80;;;18.34;62.35;95028.94;5025122;28;20309;-79
2022/09/07 06:29:16;;;;;;;0.50;0.50;;;18.10;76.80;;;18.40;62.25;95027.97;5000289;28;20212;-79
2022/09/07 06:31:43;;;;;;;0.43;0.43;;;18.20;76.80;;;18.49;62.27;95023.91;4998559;28;20315;-80
2022/09/07 06:34:30;;;;;;;0.50;0.50;;;18.30;76.90;;;18.58;62.36;95031.47;5016526;28;20196;-81
2022/09/07 06:36:57;;;;;;;0.50;0.50;;;18.40;76.90;;;18.65;62.65;95014.34;4998733;28;20227;-81
2022/09/07 06:39:24;;;;;;;0.50;0.50;;;18.50;77.10;;;18.78;62.60;95023.84;5007090;28;20204;-81
2022/09/07 06:41:52;;;;;;;0.30;0.30;;;18.60;77.10;;;18.90;62.95;95018.47;4983758;28;20558;-80
2022/09/07 06:44:30;;;;;;;0.40;0.40;;;18.70;77.20;;;19.04;63.00;95017.13;5035554;28;20281;-81
2022/09/07 06:46:57;;;;;;;0.50;0.50;;;18.80;77.10;;;19.14;62.33;95011.16;4999941;28;20312;-80
2022/09/07 06:49:27;;;;;;;0.50;0.50;;;19.00;77.20;;;19.32;62.85;95020.72;5020259;28;20212;-81
2022/09/07 06:51:54;;;;;;;0.40;0.40;;;19.00;77.20;;;19.46;62.91;95021.19;4993304;28;20224;-81
2022/09/07 06:54:21;;;;;;;0.50;0.50;;;19.20;77.10;;;19.60;62.19;95010.19;5012999;28;20681;-80
2022/09/07 06:57:08;;;;;;;0.40;0.40;;;19.30;77.00;;;19.72;62.78;95007.41;4999660;28;20217;-78
2022/09/07 06:59:36;;;;;;;0.40;0.40;;;19.50;76.80;;;19.84;62.27;95008.91;5017348;28;20219;-78
2022/09/07 07:02:05;;;;;;;0.45;0.45;;;19.70;76.70;;;19.94;61.96;95004.78;5033259;28;20647;-78
2022/09/07 07:04:32;;;;;;;0.50;0.50;;;19.80;76.50;;;20.02;62.17;95001.69;5018666;28;20221;-81
2022/09/07 07:07:10;;;;;;;0.40;0.40;;;19.90;76.50;;;20.10;61.90;95005.75;5031856;28;20245;-81
2022/09/07 07:09:38;;;;;;;0.50;0.50;;;20.00;76.50;;;20.17;62.04;95002.91;5012552;28;20689;-80
2022/09/07 07:12:05;;;;;;;0.40;0.40;;;20.10;76.40;;;20.25;61.74;95000.59;5012738;28;20595;-78
2022/09/07 07:14:34;;;;;;;0.50;0.50;;;20.10;76.40;;;20.36;62.20;95003.34;5013386;28;20698;-78
2022/09/07 07:17:04;;;;;;;0.45;0.45;;;20.20;76.30;;;20.45;61.46;95001.84;5001179;28;20249;-78
2022/09/07 07:19:31;;;;;;;0.40;0.40;;;20.30;76.30;;;20.54;61.81;95003.00;4996527;28;20250;-79
2022/09/07 07:21:58;;;;;;;0.40;0.40;;;20.40;76.40;;;20.65;62.25;94998.56;5001006;28;20794;-78
2022/09/07 07:24:46;;;;;;;0.40;0.40;;;20.50;76.30;;;20.76;61.71;95005.63;4999514;28;20313;-80
2022/09/07 07:27:13;;;;;;;0.40;0.40;;;20.60;76.20;;;20.83;61.95;95002.75;5018686;28;20507;-81
2022/09/07 07:29:40;;;;;;;0.40;0.40;;;20.70;76.00;;;20.94;61.46;95007.09;5008589;28;20343;-81
2022/09/07 07:32:07;;;;;;;0.40;0.40;;;20.90;76.10;;;21.02;61.82;95010.34;5012877;28;20235;-78
2022/09/07 07:34:34;;;;;;;0.40;0.40;;;20.90;75.90;;;21.12;61.65;95010.44;4996689;28;20227;-78
2022/09/07 07:37:01;;;;;;;0.40;0.40;;;21.00;75.80;;;21.19;61.62;95018.22;4996082;28;20227;-78
2022/09/07 07:39:28;;;;;;;0.40;0.40;;;21.10;75.70;;;21.23;61.21;95016.66;4994959;28;20205;-78
2022/09/07 07:42:15;;;;;;;0.50;0.50;;;21.20;75.70;;;21.25;61.21;95020.66;5003409;28;20232;-81
2022/09/07 07:44:42;;;;;;;0.40;0.40;;;21.30;75.50;;;21.31;61.34;95028.69;5032575;28;20217;-80
2022/09/07 07:47:09;;;;;;;0.50;0.50;;;21.20;75.40;;;21.33;60.60;95029.25;5008515;28;20223;-78
2022/09/07 07:49:37;;;;;;;0.40;0.40;;;21.30;75.20;;;21.35;61.00;95022.59;5012100;28;20481;-78
2022/09/07 07:52:05;;;;;;;0.40;0.40;;;21.30;75.10;;;21.37;60.30;95017.00;5012664;28;20316;-78
2022/09/07 07:54:52;;;;;;;0.40;0.40;;;21.40;75.00;;;21.36;60.47;95021.53;5027910;28;20209;-78
2022/09/07 07:57:19;;;;;;;0.50;0.50;;;21.40;74.80;;;21.36;60.32;95032.22;5002007;28;20644;-78
2022/09/07 07:59:46;;;;;;;0.30;0.30;;;21.40;74.80;;;21.36;60.34;95026.88;5028456;28;20297;-78
2022/09/07 08:02:15;;;;;;;0.40;0.40;;;21.40;74.60;;;21.36;60.25;95031.41;4988596;28;20609;-79
2022/09/07 08:04:43;;;;;;;0.40;0.40;;;21.40;74.50;;;21.35;60.40;95035.13;4998322;28;20217;-78
2022/09/07 08:07:14;;;;;;;0.40;0.40;;;21.40;74.50;;;21.32;60.06;95033.78;5008602;28;20219;-77
2022/09/07 08:09:45;;;;;;;0.40;0.40;;;21.40;74.60;;;21.35;60.27;95041.28;5020032;28;20207;-78
2022/09/07 08:12:18;;;;;;;0.40;0.40;;;21.40;74.60;;;21.37;60.54;95038.34;5007907;28;20289;-81
2022/09/07 08:14:47;;;;;;;0.40;0.40;;;21.40;75.00;;;21.41;60.72;95036.75;5023594;28;20200;-81
2022/09/07 08:17:16;;;;;;;0.40;0.40;;;21.40;75.00;;;21.46;61.03;95036.81;5011968;28;20643;-79
2022/09/07 08:19:44;;;;;;;0.40;0.40;;;21.40;75.00;;;21.53;60.71;95042.72;5013634;28;20206;-78
2022/09/07 08:22:11;;;;;;;0.40;0.40;;;21.50;75.10;;;21.59;60.62;95030.22;5022042;28;20244;-78
2022/09/07 08:24:39;;;;;;;0.40;0.40;;;21.50;75.00;;;21.67;60.39;95027.06;5019826;28;20215;-81
2022/09/07 08:27:06;;;;;;;0.40;0.40;;;21.60;75.00;;;21.76;60.78;95032.72;5037720;28;20231;-79
2022/09/07 08:29:34;;;;;;;0.50;0.50;;;21.60;75.10;;;21.85;60.60;95035.69;5029908;28;20211;-79
2022/09/07 08:32:05;;;;;;;0.50;0.50;;;21.70;75.10;;;21.88;60.66;95013.81;5015196;28;20218;-79
2022/09/07 08:34:35;;;;;;;0.30;0.30;;;21.80;75.10;;;21.98;60.44;95013.06;5020797;28;20218;-78
2022/09/07 08:37:02;;;;;;;0.32;0.32;;;21.80;75.00;;;22.05;60.40;95013.63;5010357;28;20215;-77
2022/09/07 08:39:30;;;;;;;0.30;0.30;;;21.90;75.10;;;22.10;60.55;95013.63;5030604;28;20203;-79
2022/09/07 08:42:04;;;;;;;0.50;0.50;;;22.00;75.20;;;22.23;60.55;95017.69;5029313;28;20714;-79
2022/09/07 08:44:44;;;;;;;0.40;0.40;;;22.00;75.10;;;22.30;60.37;95015.59;5030599;28;20212;-79
2022/09/07 08:47:42;;;;;;;0.40;0.40;;;22.10;75.10;;;22.44;60.32;95015.91;5030083;28;20636;-81
2022/09/07 08:50:58;;;;;;;0.40;0.40;;;22.20;75.00;;;22.55;60.41;95014.06;5031104;28;20190;-81
2022/09/07 08:53:27;;;;;;;0.38;0.38;;;22.30;75.00;;;22.69;60.61;95014.31;5030413;28;20253;-81
2022/09/07 08:56:03;;;;;;;0.30;0.30;;;22.50;75.30;;;22.81;60.18;95016.75;5045783;28;20732;-82
2022/09/07 08:58:43;;;;;;;0.40;0.40;;;22.60;75.00;;;22.93;60.14;95021.84;5029461;28;20203;-80
2022/09/07 09:01:40;;;;;;;0.43;0.43;;;22.70;75.00;;;23.05;59.87;95018.91;5030217;28;20221;-78
2022/09/07 09:04:35;;;;;;;0.60;0.60;;;22.80;74.90;;;23.17;59.97;95017.56;5014015;28;20207;-81
2022/09/07 09:08:08;;;;;;;0.40;0.40;;;22.90;74.90;;;23.32;59.69;95018.63;5005918;28;20228;-80
2022/09/07 09:10:52;;;;;;;0.50;0.50;;;23.00;74.40;;;23.46;59.54;95019.69;5011586;28;20188;-81
2022/09/07 09:13:46;;;;;;;0.40;0.40;;;23.20;74.40;;;23.59;59.20;95020.19;5003136;28;20201;-81
2022/09/07 09:16:35;;;;;;;0.60;0.60;;;23.30;74.40;;;23.73;59.20;95021.22;5000910;28;20318;-80
2022/09/07 09:19:38;;;;;;;0.40;0.40;;;23.50;74.30;;;23.85;59.12;95026.25;5013025;28;20587;-79
2022/09/07 09:22:20;;;;;;;0.40;0.40;;;23.60;74.10;;;23.99;58.61;95021.16;5014119;28;20220;-80
2022/09/07 09:24:52;;;;;;;0.35;0.35;;;23.70;74.00;;;24.09;58.90;95015.75;5011579;28;20640;-80
2022/09/07 09:27:19;;;;;;;0.52;0.52;;;23.80;74.00;;;24.21;58.70;95017.31;5002766;28;20235;-81
2022/09/07 09:29:47;;;;;;;0.30;0.30;;;23.90;74.20;;;24.35;58.66;95007.59;5013869;28;20638;-81
2022/09/07 09:32:40;;;;;;;0.60;0.60;;;24.10;73.90;;;24.48;58.44;95022.25;5014567;28;20239;-81
2022/09/07 09:35:28;;;;;;;0.40;0.40;;;24.20;73.80;;;24.59;58.45;95014.97;4995655;28;20650;-79
2022/09/07 09:37:56;;;;;;;0.40;0.40;;;24.30;74.00;;;24.71;58.34;95018.13;5013137;28;20229;-80
2022/09/07 09:40:29;;;;;;;0.40;0.40;;;24.40;74.60;;;24.82;57.48;95016.16;5010438;28;20265;-81
2022/09/07 09:43:17;;;;;;;0.40;0.40;;;24.50;73.10;;;24.92;57.27;95021.44;5002245;28;20238;-80
2022/09/07 09:45:47;;;;;;;0.40;0.40;;;24.60;72.90;;;25.05;57.56;95021.91;5013871;28;20275;-81
2022/09/07 09:48:38;;;;;;;0.40;0.40;;;24.80;73.10;;;25.16;57.29;95015.38;5014896;28;20201;-80
2022/09/07 09:51:07;;;;;;;0.40;0.40;;;24.90;72.80;;;25.27;57.02;94997.28;5034866;28;20216;-81
2022/09/07 09:54:06;;;;;;;0.40;0.40;;;24.90;72.70;;;25.41;56.41;94997.44;4990036;28;20209;-81
2022/09/07 09:56:43;;;;;;;0.30;0.30;;;25.10;72.20;;;25.53;55.97;94991.69;5009526;28;20798;-81
2022/09/07 09:59:16;;;;;;;0.40;0.40;;;25.20;71.70;;;25.65;56.32;94985.94;5014102;28;20205;-81
2022/09/07 10:02:29;;;;;;;0.30;0.30;;;25.30;72.00;;;25.77;56.41;94996.25;5016798;28;20275;-82
2022/09/07 10:05:42;;;;;;;0.30;0.30;;;25.40;71.40;;;25.86;55.84;94991.84;4999384;28;20300;-80
2022/09/07 10:08:23;;;;;;;0.40;0.40;;;25.60;70.30;;;25.95;54.63;94989.31;5024332;28;20219;-81
2022/09/07 10:10:59;;;;;;;0.68;0.68;;;25.70;70.10;;;26.03;54.43;94978.72;5023029;28;20195;-80
2022/09/07 10:13:30;;;;;;;0.30;0.30;;;25.70;70.30;;;26.14;54.71;94981.31;5013114;28;20206;-81
2022/09/07 10:16:02;;;;;;;0.32;0.32;;;25.80;69.80;;;26.22;54.37;94972.63;5006268;28;20237;-81
2022/09/07 10:18:54;;;;;;;0.40;0.40;;;25.90;69.70;;;26.36;53.77;94983.44;5013044;28;20614;-81
2022/09/07 10:21:25;;;;;;;0.40;0.40;;;26.00;69.40;;;26.46;53.92;94977.91;4987968;28;20581;-80
2022/09/07 10:23:58;;;;;;;0.40;0.40;;;26.10;69.60;;;26.58;53.05;94977.47;5019692;28;20209;-81
2022/09/07 10:26:35;;;;;;;0.30;0.30;;;26.20;69.20;;;26.69;52.81;94970.84;5003199;28;20251;-80
2022/09/07 10:29:23;;;;;;;0.30;0.30;;;26.30;68.20;;;26.81;53.34;94972.31;5026540;28;20242;-80
2022/09/07 10:32:21;;;;;;;0.40;0.40;;;26.40;68.30;;;26.92;52.88;94972.97;4994624;28;20235;-79
2022/09/07 10:34:54;;;;;;;0.40;0.40;;;26.60;68.40;;;27.05;52.52;94963.31;5012971;28;20205;-80
2022/09/07 10:38:01;;;;;;;0.30;0.30;;;26.70;68.40;;;27.12;52.41;94959.16;5021341;28;20216;-79
2022/09/07 10:40:57;;;;;;;0.40;0.40;;;26.80;68.40;;;27.24;52.19;94960.56;5020725;28;20202;-81
2022/09/07 10:43:57;;;;;;;0.30;0.30;;;26.90;68.30;;;27.30;51.49;94960.16;5034483;28;20193;-80
2022/09/07 10:46:53;;;;;;;0.40;0.40;;;27.00;68.00;;;27.38;51.51;94964.09;5025681;28;20825;-80
2022/09/07 10:49:40;;;;;;;0.30;0.30;;;27.10;67.70;;;27.43;50.41;94961.31;5010324;28;20208;-80
2022/09/07 10:52:47;;;;;;;0.30;0.30;;;27.20;66.80;;;27.51;50.46;94959.03;5012980;28;20238;-80
2022/09/07 10:55:25;;;;;;;0.30;0.30;;;27.30;66.70;;;27.60;49.91;94958.03;4995516;28;20204;-80